createdAt,value
2023-04-20T00:00:25.074Z,9.28
2023-04-20T00:02:54.812Z,9.13
2023-04-20T00:05:23.350Z,9.24
2023-04-20T00:07:56.025Z,9.28
2023-04-20T00:10:33.275Z,9.24
2023-04-20T00:13:03.770Z,9.35
2023-04-20T00:15:42.607Z,9.29
2023-04-20T00:18:16.414Z,9.15
2023-04-20T00:20:50.830Z,9.12
2023-04-20T00:23:21.772Z,9.25
2023-04-20T00:26:00.890Z,9.16
2023-04-20T00:28:31.976Z,9.18
2023-04-20T00:31:05.715Z,9.09
2023-04-20T00:33:41.001Z,8.96
2023-04-20T00:36:15.669Z,8.94
2023-04-20T00:38:48.685Z,8.87
2023-04-20T00:41:23.638Z,8.92
2023-04-20T00:44:03.865Z,8.82
2023-04-20T00:46:45.689Z,8.88
2023-04-20T00:49:18.390Z,8.87
2023-04-20T00:51:50.611Z,8.69
2023-04-20T00:54:21.476Z,8.67
2023-04-20T00:56:54.096Z,8.63
2023-04-20T00:59:33.568Z,8.76
2023-04-20T01:02:08.740Z,8.60
2023-04-20T01:04:42.240Z,8.61
2023-04-20T01:07:13.472Z,8.73
2023-04-20T01:09:45.092Z,8.76
2023-04-20T01:12:15.660Z,8.69
2023-04-20T01:14:48.192Z,8.88
2023-04-20T01:17:22.404Z,8.64
2023-04-20T01:19:59.249Z,8.92
2023-04-20T01:22:38.749Z,8.65
2023-04-20T01:25:09.611Z,8.77
2023-04-20T01:27:40.503Z,8.63
2023-04-20T01:30:18.122Z,8.47
2023-04-20T01:32:49.411Z,8.36
2023-04-20T01:35:21.857Z,8.64
2023-04-20T01:37:58.803Z,8.68
2023-04-20T01:40:30.697Z,8.62
2023-04-20T01:43:02.868Z,8.57
2023-04-20T01:45:33.129Z,8.74
2023-04-20T01:48:10.109Z,8.37
2023-04-20T01:50:40.987Z,8.55
2023-04-20T01:53:10.923Z,8.53
2023-04-20T01:55:48.558Z,8.50
2023-04-20T01:58:31.556Z,8.41
2023-04-20T02:01:02.440Z,8.31
2023-04-20T02:03:33.715Z,8.40
2023-04-20T02:06:06.270Z,8.38
2023-04-20T02:08:50.688Z,8.67
2023-04-20T02:11:19.949Z,8.43
2023-04-20T02:13:53.557Z,8.41
2023-04-20T02:16:24.177Z,8.63
2023-04-20T02:18:55.244Z,8.46
2023-04-20T02:21:27.999Z,8.49
2023-04-20T02:24:04.939Z,8.32
2023-04-20T02:26:42.367Z,8.34
2023-04-20T02:29:12.619Z,8.52
2023-04-20T02:31:42.201Z,8.60
2023-04-20T02:34:13.292Z,8.53
2023-04-20T02:36:45.249Z,8.54
2023-04-20T02:39:18.298Z,8.59
2023-04-20T02:41:49.433Z,8.35
2023-04-20T02:44:18.995Z,8.28
2023-04-20T02:46:47.832Z,8.37
2023-04-20T02:49:22.050Z,8.48
2023-04-20T02:51:59.433Z,8.24
2023-04-20T02:54:32.341Z,8.03
2023-04-20T02:57:11.492Z,8.24
2023-04-20T02:59:43.179Z,8.21
2023-04-20T03:02:31.284Z,8.42
2023-04-20T03:05:03.573Z,8.41
2023-04-20T03:07:41.147Z,8.44
2023-04-20T03:10:27.389Z,8.37
2023-04-20T03:13:03.878Z,8.39
2023-04-20T03:15:37.936Z,8.31
2023-04-20T03:18:28.994Z,8.27
2023-04-20T03:20:59.127Z,8.17
2023-04-20T03:23:35.939Z,8.08
2023-04-20T03:26:22.384Z,7.95
2023-04-20T03:29:10.556Z,8.14
2023-04-20T03:31:41.328Z,8.04
2023-04-20T03:34:12.585Z,8.09
2023-04-20T03:36:49.763Z,8.16
2023-04-20T03:39:34.620Z,8.19
2023-04-20T03:42:19.644Z,8.09
2023-04-20T03:44:50.801Z,8.17
2023-04-20T03:47:21.984Z,8.17
2023-04-20T03:49:54.715Z,7.97
2023-04-20T03:52:23.637Z,8.03
2023-04-20T03:54:54.757Z,8.04
2023-04-20T03:57:38.093Z,8.26
2023-04-20T04:00:15.230Z,8.14
2023-04-20T04:02:50.523Z,8.10
2023-04-20T04:05:46.919Z,8.08
2023-04-20T04:08:18.498Z,8.22
2023-04-20T04:10:49.969Z,8.04
2023-04-20T04:13:22.469Z,8.04
2023-04-20T04:15:59.440Z,7.91
2023-04-20T04:18:32.721Z,8.13
2023-04-20T04:21:10.261Z,8.19
2023-04-20T04:23:42.715Z,8.10
2023-04-20T04:26:36.546Z,7.95
2023-04-20T04:29:12.129Z,8.06
2023-04-20T04:31:41.803Z,8.15
2023-04-20T04:34:19.438Z,8.16
2023-04-20T04:36:55.938Z,8.26
2023-04-20T04:39:35.876Z,8.15
2023-04-20T04:42:20.502Z,8.06
2023-04-20T04:44:55.722Z,8.36
2023-04-20T04:47:30.935Z,8.37
2023-04-20T04:50:15.624Z,8.35
2023-04-20T04:52:46.859Z,8.44
2023-04-20T04:58:03.939Z,8.15
2023-04-20T05:00:35.975Z,8.43
2023-04-20T05:03:05.588Z,8.32
2023-04-20T05:05:34.860Z,8.26
2023-04-20T05:08:06.099Z,8.26
2023-04-20T05:10:36.871Z,8.46
2023-04-20T05:13:08.734Z,8.28
2023-04-20T05:15:46.503Z,8.54
2023-04-20T05:18:19.997Z,8.34
2023-04-20T05:20:49.433Z,8.39
2023-04-20T05:23:26.660Z,8.47
2023-04-20T05:26:03.053Z,8.38
2023-04-20T05:28:39.744Z,8.33
2023-04-20T05:31:12.335Z,8.46
2023-04-20T05:33:46.390Z,8.50
2023-04-20T05:36:22.928Z,8.82
2023-04-20T05:38:56.643Z,8.72
2023-04-20T05:41:27.372Z,8.71
2023-04-20T05:44:04.436Z,8.88
2023-04-20T05:46:38.868Z,8.71
2023-04-20T05:49:11.062Z,8.85
2023-04-20T05:51:42.377Z,8.87
2023-04-20T05:54:16.424Z,8.83
2023-04-20T05:56:54.273Z,8.78
2023-04-20T05:59:26.308Z,8.68
2023-04-20T06:02:07.525Z,8.69
2023-04-20T06:04:40.756Z,8.71
2023-04-20T06:07:12.938Z,8.81
2023-04-20T06:09:45.098Z,8.62
2023-04-20T06:12:21.985Z,8.64
2023-04-20T06:14:54.912Z,8.69
2023-04-20T06:17:30.353Z,8.82
2023-04-20T06:20:01.408Z,9.11
2023-04-20T06:22:31.164Z,8.83
2023-04-20T06:25:01.666Z,8.92
2023-04-20T06:27:32.977Z,8.97
2023-04-20T06:30:02.042Z,8.97
2023-04-20T06:32:39.486Z,8.88
2023-04-20T06:35:09.531Z,9.04
2023-04-20T06:37:40.560Z,9.08
2023-04-20T06:40:09.960Z,9.23
2023-04-20T06:42:41.705Z,9.16
2023-04-20T06:45:13.012Z,9.34
2023-04-20T06:47:51.116Z,9.03
2023-04-20T06:50:22.607Z,9.02
2023-04-20T06:52:50.924Z,9.26
2023-04-20T06:55:28.882Z,9.28
2023-04-20T06:58:00.821Z,9.27
2023-04-20T07:00:33.657Z,9.22
2023-04-20T07:03:04.704Z,9.30
2023-04-20T07:05:35.037Z,9.25
2023-04-20T07:08:07.098Z,9.29
2023-04-20T07:10:35.801Z,9.31
2023-04-20T07:13:06.198Z,9.58
2023-04-20T07:15:35.335Z,9.79
2023-04-20T07:18:21.429Z,9.69
2023-04-20T07:20:52.431Z,9.95
2023-04-20T07:23:22.488Z,9.78
2023-04-20T07:25:53.391Z,10.15
2023-04-20T07:28:28.792Z,9.91
2023-04-20T07:30:59.534Z,10.05
2023-04-20T07:33:43.857Z,10.04
2023-04-20T07:36:17.681Z,10.28
2023-04-20T07:38:58.403Z,9.99
2023-04-20T07:41:27.096Z,10.13
2023-04-20T07:43:58.017Z,10.20
2023-04-20T07:46:29.012Z,10.39
2023-04-20T07:49:00.731Z,10.63
2023-04-20T07:51:30.490Z,10.45
2023-04-20T07:54:01.523Z,10.47
2023-04-20T07:56:33.710Z,10.18
2023-04-20T07:59:03.098Z,10.34
2023-04-20T08:01:38.193Z,10.48
2023-04-20T08:04:20.921Z,10.62
2023-04-20T08:07:05.853Z,10.60
2023-04-20T08:09:39.226Z,10.42
2023-04-20T08:12:13.477Z,10.52
2023-04-20T08:14:43.042Z,10.82
2023-04-20T08:17:12.558Z,10.77
2023-04-20T08:19:48.329Z,10.53
2023-04-20T08:22:18.892Z,10.51
2023-04-20T08:24:48.144Z,10.98
2023-04-20T08:27:24.837Z,10.93
2023-04-20T08:29:53.024Z,10.78
2023-04-20T08:32:27.233Z,11.06
2023-04-20T08:35:03.483Z,11.14
2023-04-20T08:37:35.408Z,11.10
2023-04-20T08:40:05.736Z,11.20
2023-04-20T08:42:35.135Z,11.07
2023-04-20T08:45:06.986Z,11.29
2023-04-20T08:47:40.392Z,11.38
2023-04-20T08:50:19.381Z,11.27
2023-04-20T08:52:48.200Z,11.11
2023-04-20T08:55:27.540Z,11.16
2023-04-20T08:58:01.146Z,11.03
2023-04-20T09:00:34.795Z,11.18
2023-04-20T09:03:11.944Z,11.29
2023-04-20T09:05:51.266Z,11.21
2023-04-20T09:08:25.448Z,11.39
2023-04-20T09:10:54.001Z,11.66
2023-04-20T09:13:29.194Z,11.93
2023-04-20T09:15:58.324Z,12.17
2023-04-20T09:18:27.704Z,12.18
2023-04-20T09:21:09.276Z,12.23
2023-04-20T09:23:47.185Z,12.21
2023-04-20T09:26:22.529Z,12.20
2023-04-20T09:28:59.855Z,12.29
2023-04-20T09:31:28.193Z,12.43
2023-04-20T09:34:01.904Z,12.45
2023-04-20T09:36:42.634Z,12.65
2023-04-20T09:39:20.970Z,12.45
2023-04-20T09:41:53.513Z,12.52
2023-04-20T09:44:29.909Z,12.74
2023-04-20T09:46:58.097Z,12.96
2023-04-20T09:49:30.084Z,12.55
2023-04-20T09:52:05.269Z,12.82
2023-04-20T09:54:39.448Z,13.10
2023-04-20T09:57:08.405Z,13.20
2023-04-20T09:59:40.183Z,13.18
2023-04-20T10:02:22.176Z,13.15
2023-04-20T10:05:03.734Z,13.40
2023-04-20T10:07:44.405Z,13.66
2023-04-20T10:10:20.943Z,13.81
2023-04-20T10:12:50.280Z,14.05
2023-04-20T10:15:24.305Z,14.17
2023-04-20T10:17:55.282Z,14.18
2023-04-20T10:20:30.038Z,14.03
2023-04-20T10:23:20.087Z,13.91
2023-04-20T10:26:01.349Z,13.67
2023-04-20T10:28:45.149Z,13.81
2023-04-20T10:31:23.028Z,14.05
2023-04-20T10:33:55.338Z,13.98
2023-04-20T10:36:28.420Z,14.04
2023-04-20T10:39:01.817Z,14.25
2023-04-20T10:41:33.440Z,14.61
2023-04-20T10:44:10.751Z,14.59
2023-04-20T10:46:42.242Z,14.50
2023-04-20T10:49:18.836Z,14.45
2023-04-20T10:51:59.305Z,14.29
2023-04-20T10:54:38.058Z,14.23
2023-04-20T10:57:13.398Z,14.47
2023-04-20T10:59:43.651Z,14.49
2023-04-20T11:02:14.490Z,14.48
2023-04-20T11:04:43.177Z,14.72
2023-04-20T11:07:20.566Z,15.09
2023-04-20T11:09:58.982Z,15.22
2023-04-20T11:12:29.749Z,15.26
2023-04-20T11:15:09.768Z,15.50
2023-04-20T11:17:42.675Z,15.53
2023-04-20T11:20:24.479Z,15.43
2023-04-20T11:23:02.856Z,15.67
2023-04-20T11:25:40.755Z,15.68
2023-04-20T11:28:12.501Z,16.12
2023-04-20T11:30:42.356Z,16.29
2023-04-20T11:33:16.303Z,16.60
2023-04-20T11:35:46.440Z,16.61
2023-04-20T11:38:19.419Z,16.89
2023-04-20T11:41:04.844Z,17.02
2023-04-20T11:43:33.590Z,16.83
2023-04-20T11:46:05.217Z,16.95
2023-04-20T11:48:34.443Z,17.05
2023-04-20T11:51:10.172Z,17.11
2023-04-20T11:53:49.970Z,17.36
2023-04-20T11:56:35.255Z,17.47
2023-04-20T11:59:07.136Z,17.24
2023-04-20T12:01:46.080Z,17.21
2023-04-20T12:04:17.121Z,17.31
2023-04-20T12:06:46.484Z,17.28
2023-04-20T12:09:20.762Z,17.55
2023-04-20T12:11:56.667Z,16.96
2023-04-20T12:14:27.368Z,16.56
2023-04-20T12:16:58.472Z,16.65
2023-04-20T12:19:29.565Z,17.21
2023-04-20T12:22:01.930Z,17.55
2023-04-20T12:24:31.220Z,17.86
2023-04-20T12:27:14.482Z,18.19
2023-04-20T12:29:43.262Z,18.53
2023-04-20T12:32:12.728Z,18.77
2023-04-20T12:34:41.949Z,19.06
2023-04-20T12:37:11.430Z,18.37
2023-04-20T12:39:42.118Z,18.11
2023-04-20T12:42:23.125Z,17.51
2023-04-20T12:44:56.597Z,17.25
2023-04-20T12:47:31.278Z,17.56
2023-04-20T12:50:03.896Z,18.01
2023-04-20T12:52:34.662Z,18.73
2023-04-20T12:55:05.472Z,18.96
2023-04-20T12:57:37.500Z,18.71
2023-04-20T13:00:13.926Z,18.94
2023-04-20T13:02:48.835Z,18.98
2023-04-20T13:05:20.242Z,18.45
2023-04-20T13:07:54.141Z,18.76
2023-04-20T13:10:22.432Z,19.07
2023-04-20T13:12:53.156Z,19.29
2023-04-20T13:15:37.490Z,19.85
2023-04-20T13:18:16.109Z,19.90
2023-04-20T13:20:46.989Z,20.06
2023-04-20T13:23:26.529Z,19.70
2023-04-20T13:26:04.291Z,19.85
2023-04-20T13:28:47.893Z,19.48
2023-04-20T13:31:18.926Z,19.86
2023-04-20T13:33:56.654Z,20.48
2023-04-20T13:36:28.486Z,20.57
2023-04-20T13:39:03.943Z,20.30
2023-04-20T13:41:38.033Z,20.49
2023-04-20T13:44:20.613Z,20.49
2023-04-20T13:46:54.681Z,19.73
2023-04-20T13:49:28.952Z,19.23
2023-04-20T13:51:58.190Z,18.77
2023-04-20T13:54:26.512Z,18.40
2023-04-20T13:56:56.078Z,18.02
2023-04-20T13:59:31.534Z,17.96
2023-04-20T14:02:01.891Z,18.83
2023-04-20T14:04:32.597Z,19.52
2023-04-20T14:07:04.417Z,19.90
2023-04-20T14:09:33.668Z,19.97
2023-04-20T14:12:07.725Z,20.30
2023-04-20T14:14:40.161Z,19.48
2023-04-20T14:17:12.103Z,19.16
2023-04-20T14:19:40.378Z,18.93
2023-04-20T14:22:09.630Z,18.69
2023-04-20T14:24:38.390Z,18.42
2023-04-20T14:27:08.078Z,18.15
2023-04-20T14:29:37.771Z,18.02
2023-04-20T14:32:12.387Z,17.96
2023-04-20T14:34:41.415Z,17.75
2023-04-20T14:37:10.565Z,17.86
2023-04-20T14:39:41.892Z,17.65
2023-04-20T14:42:12.011Z,17.71
2023-04-20T14:44:44.909Z,17.45
2023-04-20T14:47:23.418Z,17.23
2023-04-20T14:49:52.656Z,17.21
2023-04-20T14:52:24.704Z,17.21
2023-04-20T14:54:58.668Z,17.09
2023-04-20T14:57:31.311Z,17.10
2023-04-20T15:00:07.163Z,16.98
2023-04-20T15:02:39.889Z,16.87
2023-04-20T15:05:20.227Z,16.87
2023-04-20T15:07:57.942Z,16.79
2023-04-20T15:10:39.464Z,16.74
2023-04-20T15:13:15.963Z,16.80
2023-04-20T15:15:49.962Z,16.75
2023-04-20T15:18:20.944Z,16.82
2023-04-20T15:20:53.587Z,16.70
2023-04-20T15:23:32.227Z,17.40
2023-04-20T15:26:00.569Z,17.66
2023-04-20T15:28:32.527Z,17.60
2023-04-20T15:31:12.816Z,17.41
2023-04-20T15:33:44.545Z,17.25
2023-04-20T15:36:28.520Z,17.51
2023-04-20T15:38:59.925Z,17.60
2023-04-20T15:41:36.310Z,17.34
2023-04-20T15:44:06.731Z,17.76
2023-04-20T15:46:39.881Z,18.08
2023-04-20T15:49:10.741Z,18.30
2023-04-20T15:51:42.601Z,18.91
2023-04-20T15:54:22.804Z,19.46
2023-04-20T15:56:53.592Z,19.12
2023-04-20T15:59:28.511Z,18.53
2023-04-20T16:02:03.178Z,18.39
2023-04-20T16:04:31.929Z,18.51
2023-04-20T16:07:01.199Z,18.96
2023-04-20T16:09:31.934Z,19.34
2023-04-20T16:12:03.988Z,19.79
2023-04-20T16:14:35.856Z,19.94
2023-04-20T16:17:12.646Z,20.15
2023-04-20T16:19:43.316Z,20.08
2023-04-20T16:22:16.447Z,20.25
2023-04-20T16:24:45.721Z,20.54
2023-04-20T16:27:19.225Z,20.63
2023-04-20T16:29:48.221Z,20.42
2023-04-20T16:32:22.751Z,19.78
2023-04-20T16:34:54.745Z,19.75
2023-04-20T16:37:29.249Z,19.64
2023-04-20T16:39:58.965Z,19.57
2023-04-20T16:42:32.715Z,19.36
2023-04-20T16:45:06.733Z,19.18
2023-04-20T16:47:51.493Z,18.95
2023-04-20T16:50:21.230Z,18.77
2023-04-20T16:52:50.941Z,18.49
2023-04-20T16:55:22.229Z,18.07
2023-04-20T16:57:59.731Z,17.91
2023-04-20T17:00:29.453Z,17.56
2023-04-20T17:03:07.320Z,17.40
2023-04-20T17:05:42.104Z,17.09
2023-04-20T17:08:22.068Z,17.02
2023-04-20T17:10:54.494Z,16.91
2023-04-20T17:13:30.951Z,16.84
2023-04-20T17:16:14.376Z,16.78
2023-04-20T17:18:52.303Z,16.58
2023-04-20T17:21:25.452Z,16.51
2023-04-20T17:24:00.194Z,16.45
2023-04-20T17:26:31.249Z,16.35
2023-04-20T17:29:00.042Z,16.28
2023-04-20T17:31:31.352Z,16.18
2023-04-20T17:34:08.482Z,16.11
2023-04-20T17:36:37.651Z,16.03
2023-04-20T17:39:09.527Z,15.92
2023-04-20T17:41:38.101Z,15.83
2023-04-20T17:44:09.614Z,15.75
2023-04-20T17:46:41.021Z,15.72
2023-04-20T17:49:20.281Z,15.64
2023-04-20T17:51:51.200Z,15.59
2023-04-20T17:54:22.365Z,15.53
2023-04-20T17:57:01.404Z,15.48
2023-04-20T17:59:38.585Z,15.43
2023-04-20T18:02:21.472Z,15.32
2023-04-20T18:05:04.799Z,15.22
2023-04-20T18:07:35.997Z,15.28
2023-04-20T18:10:08.715Z,15.24
2023-04-20T18:12:52.005Z,15.12
2023-04-20T18:15:25.807Z,15.09
2023-04-20T18:17:55.710Z,15.10
2023-04-20T18:20:35.862Z,15.01
2023-04-20T18:23:06.857Z,14.92
2023-04-20T18:25:40.308Z,14.96
2023-04-20T18:28:15.206Z,14.99
2023-04-20T18:30:52.350Z,14.86
2023-04-20T18:33:25.305Z,14.79
2023-04-20T18:35:59.027Z,14.78
2023-04-20T18:38:32.303Z,14.74
2023-04-20T18:41:09.040Z,14.67
2023-04-20T18:43:48.728Z,14.67
2023-04-20T18:46:19.151Z,14.56
2023-04-20T18:48:57.001Z,14.52
2023-04-20T18:51:38.194Z,14.51
2023-04-20T18:54:23.643Z,14.35
2023-04-20T18:56:55.816Z,14.34
2023-04-20T18:59:40.415Z,14.29
2023-04-20T19:02:10.544Z,14.24
2023-04-20T19:04:48.982Z,14.37
2023-04-20T19:07:27.944Z,14.38
2023-04-20T19:09:59.541Z,14.27
2023-04-20T19:12:34.759Z,13.99
2023-04-20T19:15:06.881Z,13.98
2023-04-20T19:17:37.207Z,14.06
2023-04-20T19:20:17.157Z,13.84
2023-04-20T19:22:52.596Z,13.82
2023-04-20T19:25:40.681Z,13.92
2023-04-20T19:28:19.109Z,13.78
2023-04-20T19:30:51.550Z,13.65
2023-04-20T19:33:23.091Z,13.77
2023-04-20T19:35:54.379Z,13.66
2023-04-20T19:38:31.761Z,13.67
2023-04-20T19:41:01.968Z,13.61
2023-04-20T19:43:40.299Z,13.72
2023-04-20T19:46:10.326Z,13.69
2023-04-20T19:48:43.413Z,13.67
2023-04-20T19:51:17.406Z,13.50
2023-04-20T19:53:53.438Z,13.40
2023-04-20T19:56:26.244Z,13.31
2023-04-20T19:59:04.484Z,13.48
2023-04-20T20:01:42.599Z,13.37
2023-04-20T20:04:14.649Z,13.49
2023-04-20T20:06:51.257Z,13.49
2023-04-20T20:09:29.291Z,13.38
2023-04-20T20:12:02.437Z,13.51
2023-04-20T20:14:38.013Z,13.38
2023-04-20T20:17:12.531Z,13.26
2023-04-20T20:19:47.717Z,13.19
2023-04-20T20:22:19.625Z,13.26
2023-04-20T20:24:51.364Z,13.25
2023-04-20T20:27:21.427Z,13.19
2023-04-20T20:29:52.549Z,13.14
2023-04-20T20:32:26.338Z,13.15
2023-04-20T20:35:04.658Z,13.03
2023-04-20T20:37:35.336Z,12.96
2023-04-20T20:40:12.318Z,12.98
2023-04-20T20:42:45.361Z,12.99
2023-04-20T20:45:21.866Z,13.07
2023-04-20T20:47:51.522Z,13.07
2023-04-20T20:50:25.188Z,13.10
2023-04-20T20:52:53.968Z,13.01
2023-04-20T20:55:24.437Z,12.95
2023-04-20T20:57:53.768Z,12.89
2023-04-20T21:00:33.699Z,13.03
2023-04-20T21:03:04.063Z,12.82
2023-04-20T21:05:35.602Z,12.82
2023-04-20T21:08:09.890Z,12.86
2023-04-20T21:10:47.886Z,12.70
2023-04-20T21:13:26.465Z,12.69
2023-04-20T21:15:54.957Z,12.68
2023-04-20T21:18:25.171Z,12.65
2023-04-20T21:20:56.008Z,12.60
2023-04-20T21:23:27.780Z,12.60
2023-04-20T21:26:07.319Z,12.53
2023-04-20T21:28:35.934Z,12.69
2023-04-20T21:31:07.841Z,12.51
2023-04-20T21:33:38.648Z,12.47
2023-04-20T21:36:13.168Z,12.52
2023-04-20T21:38:44.962Z,12.43
2023-04-20T21:41:34.618Z,12.55
2023-04-20T21:44:05.526Z,12.68
2023-04-20T21:46:42.471Z,12.82
2023-04-20T21:49:20.407Z,12.73
2023-04-20T21:51:52.667Z,12.72
2023-04-20T21:54:21.378Z,12.77
2023-04-20T21:56:52.333Z,12.60
2023-04-20T21:59:21.223Z,12.49
2023-04-20T22:01:51.457Z,12.55
2023-04-20T22:04:21.210Z,12.55
2023-04-20T22:06:52.195Z,12.47
2023-04-20T22:09:26.046Z,12.23
2023-04-20T22:11:56.092Z,12.23
2023-04-20T22:14:25.503Z,12.44
2023-04-20T22:16:59.345Z,12.41
2023-04-20T22:19:29.130Z,12.43
2023-04-20T22:21:59.732Z,12.44
2023-04-20T22:24:28.056Z,12.24
2023-04-20T22:27:04.866Z,12.24
2023-04-20T22:29:42.403Z,12.51
2023-04-20T22:32:16.441Z,12.61
2023-04-20T22:34:47.387Z,12.44
2023-04-20T22:37:17.176Z,12.39
2023-04-20T22:39:53.507Z,12.28
2023-04-20T22:42:26.879Z,12.36
2023-04-20T22:44:58.420Z,12.15
2023-04-20T22:47:34.728Z,12.26
2023-04-20T22:50:04.015Z,12.29
2023-04-20T22:52:34.890Z,12.25
2023-04-20T22:55:06.135Z,12.04
2023-04-20T22:57:47.277Z,11.86
2023-04-20T23:00:19.735Z,12.07
2023-04-20T23:02:56.468Z,12.01
2023-04-20T23:05:34.565Z,11.90
2023-04-20T23:08:09.352Z,11.85
2023-04-20T23:10:39.688Z,11.88
2023-04-20T23:13:22.871Z,11.84
2023-04-20T23:15:54.040Z,11.76
2023-04-20T23:18:31.260Z,11.74
2023-04-20T23:21:02.801Z,11.65
2023-04-20T23:23:32.140Z,11.73
2023-04-20T23:26:03.216Z,11.71
2023-04-20T23:28:33.714Z,11.82
2023-04-20T23:31:04.503Z,11.89
2023-04-20T23:33:36.183Z,11.95
2023-04-20T23:36:13.602Z,12.05
2023-04-20T23:38:51.398Z,11.88
2023-04-20T23:41:22.340Z,11.97
2023-04-20T23:44:05.906Z,11.85
2023-04-20T23:46:50.095Z,11.75
2023-04-20T23:49:27.097Z,11.65
2023-04-20T23:51:58.656Z,11.67
2023-04-20T23:54:27.306Z,11.64
2023-04-20T23:56:57.046Z,11.73
2023-04-20T23:59:28.737Z,11.79
